Time;durP1;ratioP1;P1;durP2;ratioP2;P2;SDS_P1;SDS_P2;PMS_P1;PMS_P2;Temp;Humidity;BMP_temperature;BMP_pressure;BME280_temperature;BME280_humidity;BME280_pressure;Samples;Min_cycle;Max_cycle;Signal;HPM_P1;HPM_P2
2022/07/11 00:01:48;;;;;;;3.25;0.65;;;21.70;68.90;;;;;;5035164;28;20140;-60
2022/07/11 00:04:14;;;;;;;2.15;0.70;;;21.60;68.90;;;;;;5034936;28;20137;-60
2022/07/11 00:06:40;;;;;;;1.23;0.75;;;21.70;68.90;;;;;;5033769;28;20041;-61
2022/07/11 00:09:05;;;;;;;1.52;0.65;;;21.70;68.90;;;;;;5035228;28;20516;-61
2022/07/11 00:11:31;;;;;;;1.83;0.70;;;21.60;68.80;;;;;;5034652;28;20041;-61
2022/07/11 00:13:56;;;;;;;3.33;0.93;;;21.70;68.80;;;;;;5034790;28;20041;-61
2022/07/11 00:16:22;;;;;;;2.15;0.70;;;21.60;68.80;;;;;;5035305;28;20038;-61
2022/07/11 00:18:47;;;;;;;0.98;0.60;;;21.70;68.80;;;;;;5034142;28;20460;-61
2022/07/11 00:21:13;;;;;;;2.17;0.90;;;21.60;68.80;;;;;;5035035;28;20533;-61
2022/07/11 00:23:38;;;;;;;1.75;0.70;;;21.60;68.70;;;;;;5035160;28;20053;-61
2022/07/11 00:26:04;;;;;;;2.13;0.80;;;21.60;68.70;;;;;;5034267;28;20049;-60
2022/07/11 00:28:30;;;;;;;1.13;0.70;;;21.70;68.70;;;;;;5034776;28;20137;-60
2022/07/11 00:30:55;;;;;;;1.73;0.73;;;21.60;68.70;;;;;;5066729;28;20045;-61
2022/07/11 00:33:21;;;;;;;1.88;0.60;;;21.60;68.70;;;;;;5034338;28;20084;-61
2022/07/11 00:35:47;;;;;;;1.27;0.60;;;21.60;68.70;;;;;;5034766;28;20091;-60
2022/07/11 00:38:12;;;;;;;1.67;0.60;;;21.60;68.70;;;;;;5035215;28;20046;-60
2022/07/11 00:40:38;;;;;;;2.20;0.65;;;21.60;68.60;;;;;;5033990;28;20117;-61
2022/07/11 00:43:04;;;;;;;0.70;0.50;;;21.60;68.60;;;;;;5034661;28;20113;-60
2022/07/11 00:45:29;;;;;;;1.10;0.50;;;21.60;68.50;;;;;;5066836;28;20466;-60
2022/07/11 00:47:56;;;;;;;1.50;0.60;;;21.60;68.50;;;;;;5033655;28;20041;-61
2022/07/11 00:50:22;;;;;;;1.77;0.60;;;21.60;68.50;;;;;;5034429;28;20051;-60
2022/07/11 00:52:48;;;;;;;2.17;0.60;;;21.60;68.50;;;;;;5034618;28;20120;-61
2022/07/11 00:55:13;;;;;;;1.75;0.60;;;21.60;68.70;;;;;;5032657;28;20078;-61
2022/07/11 00:57:39;;;;;;;2.05;0.70;;;21.60;68.50;;;;;;5034316;28;20072;-60
2022/07/11 01:00:05;;;;;;;1.60;0.80;;;21.60;68.50;;;;;;5032499;28;20128;-60
2022/07/11 01:02:31;;;;;;;2.17;0.80;;;21.60;68.50;;;;;;5034209;28;20401;-60
2022/07/11 01:04:56;;;;;;;1.98;0.70;;;21.60;68.50;;;;;;5033853;28;20049;-61
2022/07/11 01:07:22;;;;;;;1.35;0.65;;;21.60;68.50;;;;;;5033955;28;20049;-61
2022/07/11 01:09:49;;;;;;;1.02;0.60;;;21.60;68.50;;;;;;5032989;28;20057;-60
2022/07/11 01:12:14;;;;;;;1.70;0.75;;;21.50;68.40;;;;;;5032993;28;20056;-60
2022/07/11 01:14:49;;;;;;;2.38;0.60;;;21.60;68.50;;;;;;5033437;28;20046;-60
2022/07/11 01:17:15;;;;;;;0.98;0.68;;;21.60;68.50;;;;;;5032898;28;20049;-60
2022/07/11 01:19:40;;;;;;;1.00;0.50;;;21.60;68.50;;;;;;5033635;28;20397;-61
2022/07/11 01:22:06;;;;;;;1.00;0.55;;;21.60;68.50;;;;;;5033225;28;20489;-60
2022/07/11 01:24:31;;;;;;;1.50;0.60;;;21.50;68.40;;;;;;5034059;28;20523;-62
2022/07/11 01:26:57;;;;;;;1.02;0.50;;;21.50;68.40;;;;;;5033477;28;20509;-61
2022/07/11 01:29:23;;;;;;;2.08;0.60;;;21.50;68.40;;;;;;5031716;28;20163;-61
2022/07/11 01:31:49;;;;;;;1.65;0.55;;;21.50;68.40;;;;;;5033540;28;20057;-60
2022/07/11 01:34:14;;;;;;;1.23;0.60;;;21.50;68.40;;;;;;5033951;28;20052;-61
2022/07/11 01:36:42;;;;;;;1.35;0.55;;;21.50;68.40;;;;;;5032694;28;20049;-60
2022/07/11 01:39:08;;;;;;;1.52;0.60;;;21.50;68.40;;;;;;5033784;28;20132;-60
2022/07/11 01:41:33;;;;;;;1.60;0.60;;;21.50;68.40;;;;;;5033503;28;20129;-60
2022/07/11 01:43:59;;;;;;;6.40;0.70;;;21.50;68.40;;;;;;5032495;28;20052;-61
2022/07/11 01:46:25;;;;;;;1.30;0.63;;;21.50;68.40;;;;;;5033529;28;20038;-61
2022/07/11 01:48:50;;;;;;;2.67;0.60;;;21.50;68.30;;;;;;5032948;28;20482;-60
2022/07/11 01:51:16;;;;;;;1.30;0.50;;;21.50;68.30;;;;;;5033110;28;20049;-61
2022/07/11 01:53:42;;;;;;;1.27;0.50;;;21.50;68.40;;;;;;5032911;28;20095;-61
2022/07/11 01:56:08;;;;;;;1.13;0.60;;;21.40;68.30;;;;;;5033443;28;20484;-60
2022/07/11 01:58:33;;;;;;;2.28;0.50;;;21.50;68.30;;;;;;5032635;28;20090;-60
2022/07/11 02:00:59;;;;;;;0.70;0.40;;;21.50;68.30;;;;;;5033042;28;20163;-60
2022/07/11 02:03:24;;;;;;;1.08;0.60;;;21.40;68.30;;;;;;5031134;28;20068;-60
2022/07/11 02:05:50;;;;;;;1.25;0.52;;;21.50;68.40;;;;;;5032692;28;20412;-60
2022/07/11 02:08:17;;;;;;;1.00;0.60;;;21.50;68.30;;;;;;5032225;28;20038;-60
2022/07/11 02:10:47;;;;;;;1.45;0.50;;;21.40;68.20;;;;;;5032157;28;20057;-60
2022/07/11 02:13:13;;;;;;;2.28;0.70;;;21.40;68.20;;;;;;5033142;28;20051;-60
2022/07/11 02:15:39;;;;;;;1.17;0.65;;;21.50;68.30;;;;;;5033237;28;20056;-60
2022/07/11 02:18:05;;;;;;;2.00;0.57;;;21.50;68.30;;;;;;5032217;28;20053;-61
2022/07/11 02:20:30;;;;;;;1.30;0.60;;;21.40;68.20;;;;;;5032744;28;20042;-61
2022/07/11 02:22:58;;;;;;;2.50;0.60;;;21.40;68.20;;;;;;5032862;28;20044;-60
2022/07/11 02:25:23;;;;;;;1.57;0.70;;;21.40;68.20;;;;;;5032358;28;20045;-60
2022/07/11 02:27:50;;;;;;;1.35;0.60;;;21.40;68.10;;;;;;5032412;28;20132;-60
2022/07/11 02:30:15;;;;;;;0.85;0.45;;;21.50;68.30;;;;;;5032797;28;20058;-59
2022/07/11 02:32:41;;;;;;;1.20;0.60;;;21.50;68.30;;;;;;5032056;28;20388;-61
2022/07/11 02:35:06;;;;;;;1.15;0.68;;;21.40;68.20;;;;;;5031359;28;20585;-60
2022/07/11 02:37:32;;;;;;;0.93;0.50;;;21.50;68.20;;;;;;5032785;28;20055;-61
2022/07/11 02:39:58;;;;;;;1.13;0.52;;;21.40;68.10;;;;;;5031760;28;20037;-61
2022/07/11 02:42:23;;;;;;;1.50;0.60;;;21.50;68.20;;;;;;5032606;28;20401;-61
2022/07/11 02:44:49;;;;;;;1.35;0.50;;;21.40;68.10;;;;;;5032354;28;20389;-61
2022/07/11 02:47:15;;;;;;;2.03;0.85;;;21.40;68.10;;;;;;5031655;28;20045;-61
2022/07/11 02:49:40;;;;;;;1.08;0.60;;;21.40;68.20;;;;;;5032317;28;20033;-60
2022/07/11 02:52:06;;;;;;;0.90;0.57;;;21.40;68.20;;;;;;5032747;28;20049;-61
2022/07/11 02:54:32;;;;;;;1.60;0.52;;;21.40;68.20;;;;;;5032011;28;20041;-60
2022/07/11 02:56:57;;;;;;;1.25;0.50;;;21.40;68.20;;;;;;5032208;28;20041;-61
2022/07/11 02:59:23;;;;;;;1.38;0.60;;;21.40;68.10;;;;;;5032461;28;20064;-61
2022/07/11 03:01:49;;;;;;;1.00;0.55;;;21.40;68.20;;;;;;5031212;28;20103;-60
2022/07/11 03:04:15;;;;;;;0.65;0.50;;;21.40;68.20;;;;;;5032566;28;20072;-61
2022/07/11 03:06:40;;;;;;;1.58;0.50;;;21.40;68.20;;;;;;5031578;28;20486;-61
2022/07/11 03:09:06;;;;;;;1.13;0.60;;;21.40;68.20;;;;;;5032483;28;20396;-61
2022/07/11 03:11:32;;;;;;;1.85;0.65;;;21.40;68.20;;;;;;5032296;28;20048;-60
2022/07/11 03:13:58;;;;;;;1.33;0.70;;;21.30;68.10;;;;;;5031434;28;20041;-60
2022/07/11 03:16:23;;;;;;;1.20;0.60;;;21.40;68.10;;;;;;5032521;28;20045;-61
2022/07/11 03:18:49;;;;;;;1.38;0.57;;;21.40;68.10;;;;;;5032191;28;20045;-60
2022/07/11 03:21:15;;;;;;;1.55;0.60;;;21.40;68.10;;;;;;5031494;28;20124;-60
2022/07/11 03:23:40;;;;;;;2.35;0.90;;;21.30;68.00;;;;;;5031990;28;20067;-60
2022/07/11 03:26:06;;;;;;;0.75;0.43;;;21.30;68.00;;;;;;5031713;28;20073;-60
2022/07/11 03:28:31;;;;;;;1.15;0.60;;;21.30;68.00;;;;;;5030784;28;20057;-60
2022/07/11 03:30:57;;;;;;;0.98;0.60;;;21.30;68.10;;;;;;5031464;28;20529;-60
2022/07/11 03:33:22;;;;;;;1.40;0.52;;;21.30;68.00;;;;;;5034807;28;20466;-60
2022/07/11 03:35:48;;;;;;;1.02;0.50;;;21.30;68.00;;;;;;5034888;28;20048;-60
2022/07/11 03:38:17;;;;;;;1.58;0.50;;;21.40;68.10;;;;;;5036274;28;20524;-60
2022/07/11 03:40:43;;;;;;;1.17;0.52;;;21.30;68.00;;;;;;5034388;28;20505;-60
2022/07/11 03:43:09;;;;;;;0.63;0.45;;;21.30;68.00;;;;;;5035062;28;20527;-60
2022/07/11 03:45:34;;;;;;;0.85;0.40;;;21.30;68.00;;;;;;5036051;28;20044;-60
2022/07/11 03:48:00;;;;;;;0.55;0.40;;;21.30;68.10;;;;;;5035764;28;20485;-61
2022/07/11 03:50:26;;;;;;;1.35;0.50;;;21.30;68.00;;;;;;5035290;28;20033;-60
2022/07/11 03:52:52;;;;;;;2.70;1.05;;;21.30;68.00;;;;;;5035490;28;20080;-60
2022/07/11 03:55:18;;;;;;;0.80;0.50;;;21.30;68.00;;;;;;5035857;28;20048;-61
2022/07/11 03:57:43;;;;;;;0.93;0.55;;;21.30;68.00;;;;;;5034298;28;20046;-60
2022/07/11 04:00:09;;;;;;;1.10;0.40;;;21.30;68.40;;;;;;5035345;28;20046;-60
2022/07/11 04:02:35;;;;;;;0.60;0.50;;;21.30;68.00;;;;;;5023623;28;20065;-60
2022/07/11 04:05:01;;;;;;;1.00;0.40;;;21.30;68.00;;;;;;5032572;28;20081;-60
2022/07/11 04:07:28;;;;;;;0.75;0.60;;;21.30;68.10;;;;;;5035309;28;20045;-60
2022/07/11 04:09:56;;;;;;;0.90;0.50;;;21.30;68.10;;;;;;5035008;28;20052;-61
2022/07/11 04:12:22;;;;;;;0.50;0.43;;;21.30;68.10;;;;;;5034564;28;20415;-60
2022/07/11 04:14:47;;;;;;;1.77;0.68;;;21.30;68.10;;;;;;5035228;28;20499;-60
2022/07/11 04:17:13;;;;;;;0.88;0.50;;;21.30;68.10;;;;;;5034876;28;20049;-61
2022/07/11 04:19:39;;;;;;;0.70;0.50;;;21.30;68.10;;;;;;5035617;28;20107;-60
2022/07/11 04:22:05;;;;;;;1.02;0.50;;;21.30;68.10;;;;;;5035211;28;20058;-60
2022/07/11 04:24:30;;;;;;;0.80;0.50;;;21.30;68.20;;;;;;5034724;28;20125;-60
2022/07/11 04:26:56;;;;;;;1.23;0.60;;;21.30;68.10;;;;;;5034970;28;20043;-60
2022/07/11 04:29:23;;;;;;;1.65;0.50;;;21.30;68.10;;;;;;5034628;28;20592;-60
2022/07/11 04:31:49;;;;;;;1.33;0.68;;;21.30;68.10;;;;;;5034261;28;20049;-60
2022/07/11 04:34:15;;;;;;;1.67;0.60;;;21.30;68.10;;;;;;5034878;28;20045;-60
2022/07/11 04:36:41;;;;;;;0.68;0.50;;;21.30;68.20;;;;;;5033212;28;20132;-60
2022/07/11 04:39:06;;;;;;;1.23;0.55;;;21.30;68.10;;;;;;5034186;28;20551;-60
2022/07/11 04:41:32;;;;;;;1.80;0.47;;;21.30;68.20;;;;;;5034625;28;20045;-60
2022/07/11 04:43:58;;;;;;;1.20;0.63;;;21.30;68.20;;;;;;5034188;28;20049;-60
2022/07/11 04:46:23;;;;;;;2.53;0.50;;;21.30;68.20;;;;;;5034251;28;20044;-61
2022/07/11 04:48:49;;;;;;;1.58;0.50;;;21.30;68.10;;;;;;5034401;28;20095;-60
2022/07/11 04:51:16;;;;;;;1.10;0.47;;;21.20;68.10;;;;;;5034886;28;20485;-61
2022/07/11 04:53:42;;;;;;;1.50;0.50;;;21.30;68.10;;;;;;5033811;28;20116;-61
2022/07/11 04:56:07;;;;;;;0.98;0.40;;;21.30;68.10;;;;;;5034811;28;20429;-60
2022/07/11 04:58:33;;;;;;;1.10;0.45;;;21.30;68.10;;;;;;5034728;28;20632;-60
2022/07/11 05:00:59;;;;;;;0.80;0.50;;;21.30;68.20;;;;;;5033685;28;20099;-60
2022/07/11 05:03:24;;;;;;;1.02;0.50;;;21.20;68.20;;;;;;5034518;28;20394;-60
2022/07/11 05:05:50;;;;;;;0.82;0.45;;;21.20;68.20;;;;;;5034198;28;20040;-60
2022/07/11 05:08:15;;;;;;;1.40;0.47;;;21.30;68.20;;;;;;5033765;28;20125;-60
2022/07/11 05:10:41;;;;;;;3.28;0.63;;;21.20;68.20;;;;;;5034126;28;20156;-61
2022/07/11 05:13:06;;;;;;;0.93;0.40;;;21.20;68.20;;;;;;5034233;28;20045;-61
2022/07/11 05:15:32;;;;;;;0.73;0.50;;;21.30;68.30;;;;;;5033529;28;20103;-60
2022/07/11 05:17:57;;;;;;;0.70;0.50;;;21.20;68.20;;;;;;5034120;28;20033;-61
2022/07/11 05:20:23;;;;;;;0.40;0.40;;;21.20;68.30;;;;;;5033658;28;20057;-60
2022/07/11 05:22:48;;;;;;;0.90;0.40;;;21.20;68.30;;;;;;5033653;28;20049;-60
2022/07/11 05:25:14;;;;;;;0.77;0.43;;;21.20;68.30;;;;;;5033971;28;20112;-59
2022/07/11 05:27:39;;;;;;;0.93;0.30;;;21.20;68.30;;;;;;5031602;28;20823;-60
2022/07/11 05:30:06;;;;;;;1.23;0.40;;;21.20;68.30;;;;;;5034198;28;20179;-60
2022/07/11 05:32:31;;;;;;;0.70;0.35;;;21.20;68.30;;;;;;5033762;28;20430;-60
2022/07/11 05:34:58;;;;;;;0.90;0.50;;;21.30;68.30;;;;;;5031519;28;20107;-61
2022/07/11 05:37:24;;;;;;;0.70;0.47;;;21.20;68.30;;;;;;5033880;28;20045;-61
2022/07/11 05:39:50;;;;;;;0.55;0.40;;;21.30;68.30;;;;;;5033094;28;20049;-61
2022/07/11 05:42:16;;;;;;;1.17;0.40;;;21.20;68.30;;;;;;5031546;28;20045;-61
2022/07/11 05:44:42;;;;;;;0.90;0.50;;;21.20;68.30;;;;;;5033474;28;20461;-61
2022/07/11 05:47:07;;;;;;;1.10;0.55;;;21.30;68.30;;;;;;5033622;28;20132;-61
2022/07/11 05:49:33;;;;;;;0.80;0.40;;;21.20;68.30;;;;;;5032845;28;20037;-62
2022/07/11 05:51:59;;;;;;;0.63;0.40;;;21.20;68.30;;;;;;5032044;28;20108;-62
2022/07/11 05:54:24;;;;;;;0.98;0.50;;;21.20;68.30;;;;;;5032964;28;20076;-62
2022/07/11 05:56:50;;;;;;;0.50;0.38;;;21.30;68.30;;;;;;5032243;28;20134;-61
2022/07/11 05:59:15;;;;;;;1.42;0.55;;;21.20;68.30;;;;;;5033918;28;20520;-61
2022/07/11 06:01:41;;;;;;;3.05;0.60;;;21.20;68.30;;;;;;5033265;28;20492;-61
2022/07/11 06:04:07;;;;;;;2.10;0.50;;;21.20;68.40;;;;;;5032905;28;20401;-62
2022/07/11 06:06:32;;;;;;;2.00;0.60;;;21.20;68.50;;;;;;5033461;28;20041;-62
2022/07/11 06:08:58;;;;;;;0.50;0.40;;;21.30;68.50;;;;;;5032667;28;20041;-61
2022/07/11 06:11:23;;;;;;;2.03;0.45;;;21.20;68.50;;;;;;5032620;28;20130;-61
2022/07/11 06:13:49;;;;;;;2.90;0.50;;;21.20;68.50;;;;;;5032580;28;20580;-61
2022/07/11 06:16:15;;;;;;;1.33;0.47;;;21.20;69.20;;;;;;5033254;28;20049;-62
2022/07/11 06:18:41;;;;;;;2.33;0.50;;;21.30;68.70;;;;;;5032073;28;20394;-62
2022/07/11 06:21:06;;;;;;;4.28;0.52;;;21.30;68.80;;;;;;5032082;28;20128;-62
2022/07/11 06:23:34;;;;;;;3.58;0.55;;;21.30;68.80;;;;;;5033237;28;20544;-62
2022/07/11 06:26:00;;;;;;;2.60;0.50;;;21.30;68.90;;;;;;5030787;28;20140;-62
2022/07/11 06:28:25;;;;;;;1.35;0.60;;;21.30;68.90;;;;;;5032392;28;20132;-61
2022/07/11 06:30:51;;;;;;;1.33;0.63;;;21.30;69.00;;;;;;5031853;28;20080;-62
2022/07/11 06:33:17;;;;;;;1.67;0.55;;;21.30;69.00;;;;;;5032507;28;20132;-61
2022/07/11 06:35:43;;;;;;;1.85;0.50;;;21.30;69.10;;;;;;5032021;28;20045;-62
2022/07/11 06:38:08;;;;;;;2.05;0.57;;;21.30;69.10;;;;;;5030462;28;20054;-63
2022/07/11 06:40:34;;;;;;;2.90;0.57;;;21.40;69.20;;;;;;5032350;28;20049;-63
2022/07/11 06:42:59;;;;;;;3.03;0.60;;;21.30;69.10;;;;;;5031830;28;20052;-63
2022/07/11 06:45:25;;;;;;;2.88;0.60;;;21.40;69.20;;;;;;5031665;28;20083;-63
2022/07/11 06:47:51;;;;;;;1.45;0.40;;;21.40;69.20;;;;;;5032113;28;20524;-63
2022/07/11 06:50:17;;;;;;;5.18;0.70;;;21.40;69.30;;;;;;5032265;28;20057;-63
2022/07/11 06:52:43;;;;;;;2.38;0.60;;;21.40;69.30;;;;;;5031410;28;20044;-63
2022/07/11 06:55:08;;;;;;;5.72;0.68;;;21.40;69.30;;;;;;5064350;28;20140;-62
2022/07/11 06:57:34;;;;;;;1.98;0.50;;;21.40;69.40;;;;;;5032319;28;20132;-62
2022/07/11 06:59:59;;;;;;;1.65;0.40;;;21.50;69.50;;;;;;5031490;28;20041;-62
2022/07/11 07:02:29;;;;;;;1.90;0.50;;;21.50;69.50;;;;;;5032108;28;20448;-62
2022/07/11 07:04:55;;;;;;;2.45;0.50;;;21.50;69.50;;;;;;5031996;28;20048;-63
2022/07/11 07:07:21;;;;;;;3.70;0.70;;;21.50;69.60;;;;;;5031699;28;20045;-62
2022/07/11 07:09:53;;;;;;;1.73;0.50;;;21.50;69.60;;;;;;5031892;28;20046;-63
2022/07/11 07:12:22;;;;;;;3.40;0.68;;;21.50;69.60;;;;;;5031848;28;20049;-63
2022/07/11 07:14:48;;;;;;;2.15;1.05;;;21.50;69.60;;;;;;5030527;28;20080;-63
2022/07/11 07:17:13;;;;;;;2.45;0.40;;;21.50;69.60;;;;;;5031864;28;20080;-63
2022/07/11 07:19:39;;;;;;;1.77;0.40;;;21.50;69.60;;;;;;5031737;28;20428;-63
2022/07/11 07:22:08;;;;;;;1.95;0.65;;;21.50;69.70;;;;;;5030878;28;20485;-60
2022/07/11 07:24:34;;;;;;;1.20;0.40;;;21.50;69.70;;;;;;5030978;28;20116;-61
2022/07/11 07:26:59;;;;;;;1.42;0.50;;;21.50;69.70;;;;;;5030948;28;20046;-61
2022/07/11 07:29:26;;;;;;;13.43;0.93;;;21.50;69.60;;;;;;5031483;28;20056;-62
2022/07/11 07:31:52;;;;;;;2.90;0.43;;;21.50;69.60;;;;;;5031283;28;20037;-62
2022/07/11 07:34:19;;;;;;;2.78;0.60;;;21.50;69.60;;;;;;5028445;28;20501;-62
2022/07/11 07:36:44;;;;;;;1.20;0.43;;;21.50;69.60;;;;;;5031805;28;20049;-63
2022/07/11 07:39:10;;;;;;;7.18;0.47;;;21.50;69.50;;;;;;5032169;28;20045;-62
2022/07/11 07:41:36;;;;;;;3.40;0.57;;;21.50;69.60;;;;;;5031911;28;20053;-62
2022/07/11 07:44:02;;;;;;;2.00;0.40;;;21.50;69.60;;;;;;5031571;28;20050;-62
2022/07/11 07:46:27;;;;;;;0.73;0.30;;;21.60;69.70;;;;;;5030412;28;20048;-62
2022/07/11 07:48:53;;;;;;;1.83;0.35;;;21.50;69.70;;;;;;5030887;28;20045;-62
2022/07/11 07:51:18;;;;;;;1.65;0.43;;;21.60;69.70;;;;;;5031761;28;20125;-62
2022/07/11 07:53:44;;;;;;;1.00;0.40;;;21.60;69.80;;;;;;5032014;28;20037;-61
2022/07/11 07:56:09;;;;;;;1.83;0.47;;;21.60;69.80;;;;;;5029460;28;20037;-62
2022/07/11 07:58:35;;;;;;;2.47;0.50;;;21.60;69.80;;;;;;5031605;28;20048;-61
2022/07/11 08:03:45;;;;;;;3.10;0.75;;;21.60;69.90;;;;;;5031142;28;20486;-61
2022/07/11 08:06:10;;;;;;;1.05;0.47;;;21.60;69.90;;;;;;5031488;28;20041;-61
2022/07/11 08:08:36;;;;;;;0.70;0.40;;;21.60;69.90;;;;;;5031040;28;20044;-61
2022/07/11 08:11:02;;;;;;;3.00;0.40;;;21.60;69.90;;;;;;5030161;28;20083;-61
2022/07/11 08:13:28;;;;;;;1.00;0.40;;;21.60;69.90;;;;;;5030866;28;20072;-62
2022/07/11 08:15:54;;;;;;;1.42;0.40;;;21.60;69.90;;;;;;5031158;28;20045;-62
2022/07/11 08:18:20;;;;;;;0.75;0.28;;;21.60;70.00;;;;;;5031380;28;20045;-61
2022/07/11 08:20:45;;;;;;;0.73;0.32;;;21.70;70.00;;;;;;5034735;28;20045;-61
2022/07/11 08:23:12;;;;;;;0.60;0.30;;;21.70;70.00;;;;;;5034638;28;20046;-61
2022/07/11 08:25:38;;;;;;;2.13;0.32;;;21.60;69.90;;;;;;5033613;28;20065;-62
2022/07/11 08:28:04;;;;;;;1.65;0.50;;;21.60;69.90;;;;;;5034421;28;20152;-63
2022/07/11 08:30:29;;;;;;;0.57;0.38;;;21.60;69.90;;;;;;5034717;28;20052;-62
2022/07/11 08:32:56;;;;;;;0.57;0.30;;;21.60;69.90;;;;;;5034869;28;20041;-62
2022/07/11 08:35:21;;;;;;;1.05;0.63;;;21.60;69.90;;;;;;5034408;28;20041;-61
2022/07/11 08:37:47;;;;;;;0.93;0.38;;;21.60;69.90;;;;;;5033952;28;20145;-61
2022/07/11 08:40:12;;;;;;;2.20;0.40;;;21.60;70.00;;;;;;5035229;28;20040;-62
2022/07/11 08:42:44;;;;;;;3.45;0.40;;;21.60;70.00;;;;;;5034825;28;20386;-61
2022/07/11 08:45:14;;;;;;;0.77;0.20;;;21.60;70.00;;;;;;5032884;28;20049;-61
2022/07/11 08:47:40;;;;;;;2.35;0.50;;;21.60;70.10;;;;;;5034661;28;20060;-62
2022/07/11 08:50:06;;;;;;;1.50;0.40;;;21.60;70.10;;;;;;5033991;28;20046;-62
2022/07/11 08:52:32;;;;;;;3.47;0.40;;;21.60;70.10;;;;;;5034312;28;20118;-61
2022/07/11 08:54:58;;;;;;;0.60;0.30;;;21.60;70.20;;;;;;5032674;28;20516;-62
2022/07/11 08:57:24;;;;;;;2.35;0.43;;;21.60;70.20;;;;;;5034791;28;20041;-62
2022/07/11 08:59:52;;;;;;;1.05;0.40;;;21.60;70.20;;;;;;5033636;28;20124;-63
2022/07/11 09:02:18;;;;;;;1.23;0.35;;;21.60;70.20;;;;;;5033542;28;20049;-62
2022/07/11 09:04:43;;;;;;;0.98;0.32;;;21.60;70.00;;;;;;5016869;28;20053;-61
2022/07/11 09:07:09;;;;;;;3.35;0.50;;;21.60;69.90;;;;;;5034136;28;20417;-63
2022/07/11 09:09:34;;;;;;;3.00;0.40;;;21.60;69.90;;;;;;5034631;28;20386;-64
2022/07/11 09:12:00;;;;;;;1.88;0.25;;;21.60;70.00;;;;;;5066477;28;20951;-62
2022/07/11 09:14:30;;;;;;;1.50;0.40;;;21.60;70.00;;;;;;5033012;28;20042;-61
2022/07/11 09:16:59;;;;;;;2.13;0.30;;;21.70;70.00;;;;;;5033752;28;20068;-61
2022/07/11 09:19:27;;;;;;;0.40;0.30;;;21.70;70.00;;;;;;5031928;28;20052;-62
2022/07/11 09:28:04;;;;;;;2.05;0.45;;;21.70;70.20;;;;;;5030909;28;20046;-61
2022/07/11 09:30:31;;;;;;;3.25;0.30;;;21.70;70.20;;;;;;5030271;28;20049;-61
2022/07/11 09:33:03;;;;;;;3.88;0.55;;;21.70;70.20;;;;;;5033045;28;20107;-61
2022/07/11 09:35:42;;;;;;;2.45;0.52;;;21.70;70.30;;;;;;5031344;28;20073;-61
2022/07/11 09:38:09;;;;;;;1.48;0.50;;;21.70;70.30;;;;;;5031643;28;20456;-61
2022/07/11 09:40:35;;;;;;;2.70;0.40;;;21.70;70.30;;;;;;5032672;28;20384;-61
2022/07/11 09:43:01;;;;;;;1.25;0.40;;;21.70;70.30;;;;;;5030435;28;20046;-61
2022/07/11 09:45:28;;;;;;;1.63;0.40;;;21.70;70.30;;;;;;5033638;28;20119;-61
2022/07/11 09:47:55;;;;;;;0.95;0.40;;;21.70;70.40;;;;;;5032435;28;20148;-61
2022/07/11 09:50:22;;;;;;;1.92;0.40;;;21.70;70.40;;;;;;5031916;28;20405;-60
2022/07/11 09:53:10;;;;;;;1.42;0.30;;;21.70;70.30;;;;;;5033621;28;20084;-59
2022/07/11 09:55:40;;;;;;;1.30;0.45;;;21.70;70.20;;;;;;5033068;28;20053;-59
2022/07/11 09:58:10;;;;;;;3.47;0.30;;;21.80;70.40;;;;;;5033510;28;20041;-59
2022/07/11 10:00:37;;;;;;;4.10;0.32;;;21.70;70.40;;;;;;5033592;28;20048;-59
2022/07/11 10:03:03;;;;;;;8.68;0.70;;;21.80;70.40;;;;;;5031257;28;20071;-59
2022/07/11 10:05:28;;;;;;;4.38;0.50;;;21.80;70.40;;;;;;5033419;28;20489;-58
2022/07/11 10:07:55;;;;;;;4.85;0.50;;;21.80;70.40;;;;;;5033148;28;20108;-58
2022/07/11 10:10:21;;;;;;;1.90;0.40;;;21.70;70.30;;;;;;5032687;28;20045;-59
2022/07/11 10:12:46;;;;;;;3.40;0.60;;;21.80;70.40;;;;;;5032733;28;20049;-60
2022/07/11 10:15:17;;;;;;;3.72;0.45;;;21.70;70.30;;;;;;5032745;28;20038;-65
2022/07/11 10:18:08;;;;;;;4.78;0.55;;;21.70;70.50;;;;;;5028018;28;20041;-64
2022/07/11 10:20:44;;;;;;;8.75;0.57;;;21.70;70.60;;;;;;5013548;28;20553;-63
2022/07/11 10:23:15;;;;;;;8.57;0.93;;;21.70;70.70;;;;;;5011519;28;20169;-63
2022/07/11 10:25:57;;;;;;;6.38;0.70;;;21.70;70.70;;;;;;5012935;28;20402;-63
2022/07/11 10:28:32;;;;;;;4.22;0.80;;;21.70;70.80;;;;;;5012375;28;20133;-63
2022/07/11 10:31:00;;;;;;;9.93;0.82;;;21.70;70.80;;;;;;5012439;28;20100;-62
2022/07/11 10:33:27;;;;;;;3.33;0.60;;;21.70;70.90;;;;;;5013260;28;20065;-63
2022/07/11 10:35:53;;;;;;;10.50;0.80;;;21.70;70.90;;;;;;5012794;28;20077;-63
2022/07/11 10:38:19;;;;;;;8.15;1.00;;;21.70;71.60;;;;;;5012618;28;20469;-65
2022/07/11 10:40:48;;;;;;;5.68;0.55;;;21.70;70.90;;;;;;5012897;28;20038;-63
2022/07/11 10:43:38;;;;;;;6.22;0.77;;;21.70;70.90;;;;;;5013241;28;20046;-63
2022/07/11 10:46:05;;;;;;;5.70;0.60;;;21.70;70.80;;;;;;5011951;28;20092;-62
2022/07/11 10:48:32;;;;;;;4.22;0.70;;;21.80;70.80;;;;;;5013167;28;20046;-62
2022/07/11 10:51:03;;;;;;;2.57;0.80;;;21.80;70.80;;;;;;5011952;28;20077;-63
2022/07/11 10:53:31;;;;;;;6.25;0.90;;;21.70;70.80;;;;;;5013071;28;20056;-64
2022/07/11 10:56:12;;;;;;;;;;;21.80;70.80;;;;;;5021499;28;20496;-63
2022/07/11 10:58:41;;;;;;;5.30;1.00;;;21.70;70.70;;;;;;5031948;28;19925;-63
2022/07/11 11:01:13;;;;;;;3.25;0.90;;;21.80;70.90;;;;;;5032704;28;20087;-63
2022/07/11 11:03:39;;;;;;;6.40;1.05;;;21.70;71.00;;;;;;5032608;28;20049;-63
2022/07/11 11:06:06;;;;;;;8.02;1.17;;;21.80;71.00;;;;;;5031774;28;20080;-63
2022/07/11 11:08:31;;;;;;;7.20;1.25;;;21.70;71.10;;;;;;5032686;28;20044;-62
2022/07/11 11:11:01;;;;;;;9.13;1.38;;;21.70;71.20;;;;;;5032535;28;20049;-63
2022/07/11 11:13:26;;;;;;;8.60;1.23;;;21.80;71.30;;;;;;5031502;28;20128;-63
2022/07/11 11:15:53;;;;;;;9.70;1.20;;;21.80;71.20;;;;;;5032356;28;20132;-62
2022/07/11 11:18:22;;;;;;;5.32;1.30;;;21.80;71.30;;;;;;5031044;28;20048;-64
2022/07/11 11:21:04;;;;;;;5.00;1.50;;;21.80;71.30;;;;;;5031348;28;20536;-63
2022/07/11 11:23:34;;;;;;;8.07;1.40;;;21.80;71.20;;;;;;5032188;28;20088;-64
2022/07/11 11:26:09;;;;;;;24.27;1.67;;;21.80;71.10;;;;;;5031896;28;20778;-63
2022/07/11 11:28:35;;;;;;;9.63;1.95;;;21.80;71.10;;;;;;5032224;28;20057;-63
2022/07/11 11:31:04;;;;;;;9.48;1.40;;;21.80;71.10;;;;;;5030599;28;20081;-63
2022/07/11 11:33:32;;;;;;;7.82;1.50;;;21.80;71.00;;;;;;5031656;28;20049;-63
2022/07/11 11:36:09;;;;;;;14.38;1.60;;;21.80;71.00;;;;;;5031645;28;20076;-63
2022/07/11 11:38:41;;;;;;;11.00;1.70;;;21.80;70.90;;;;;;5032277;28;20049;-63
2022/07/11 11:41:07;;;;;;;8.70;1.10;;;21.80;70.90;;;;;;5031665;28;20068;-62
2022/07/11 11:43:33;;;;;;;8.05;1.27;;;21.80;70.90;;;;;;5031907;28;20041;-62
2022/07/11 11:45:59;;;;;;;8.45;1.52;;;21.80;70.80;;;;;;5031920;28;20060;-62
2022/07/11 11:48:45;;;;;;;7.45;1.20;;;21.80;70.80;;;;;;5031066;28;20042;-62
2022/07/11 11:51:15;;;;;;;10.35;1.63;;;21.80;70.80;;;;;;5032385;28;20473;-62
2022/07/11 11:54:00;;;;;;;7.50;1.30;;;21.80;70.70;;;;;;5033732;28;20046;-62
2022/07/11 11:56:31;;;;;;;4.65;1.02;;;21.80;70.70;;;;;;5034686;28;20489;-60
2022/07/11 11:58:59;;;;;;;6.57;1.35;;;21.80;70.70;;;;;;5034020;28;20037;-60
2022/07/11 12:01:26;;;;;;;4.88;1.02;;;21.80;70.70;;;;;;5035357;28;20099;-60
2022/07/11 12:03:56;;;;;;;5.88;0.90;;;21.80;70.60;;;;;;5035535;28;20056;-61
2022/07/11 12:06:32;;;;;;;4.75;1.65;;;21.80;70.60;;;;;;5035956;28;20037;-61
2022/07/11 12:09:11;;;;;;;6.68;1.20;;;21.80;70.50;;;;;;5034779;28;20045;-61
2022/07/11 12:11:37;;;;;;;4.05;0.90;;;21.80;70.50;;;;;;5035927;28;20053;-61
2022/07/11 12:14:05;;;;;;;4.30;1.00;;;21.80;70.50;;;;;;5034341;28;20103;-61
2022/07/11 12:16:39;;;;;;;5.72;1.45;;;21.90;70.50;;;;;;5034988;28;20055;-61
2022/07/11 12:19:07;;;;;;;4.05;0.70;;;21.90;70.50;;;;;;5035106;28;20041;-61
2022/07/11 12:21:33;;;;;;;;;;;21.80;70.40;;;;;;5035658;28;20042;-61
2022/07/11 12:24:02;;;;;;;7.22;1.40;;;21.80;70.30;;;;;;5034495;28;19925;-61
2022/07/11 12:26:29;;;;;;;4.88;1.02;;;21.80;70.40;;;;;;5035738;28;20127;-61
2022/07/11 12:29:09;;;;;;;6.78;0.82;;;21.80;70.40;;;;;;5033796;28;20096;-62
2022/07/11 12:31:40;;;;;;;4.15;1.27;;;21.80;70.50;;;;;;5034513;28;20481;-61
2022/07/11 12:34:06;;;;;;;3.08;1.00;;;21.80;70.40;;;;;;5035374;28;20091;-62
2022/07/11 12:36:32;;;;;;;5.68;1.05;;;21.80;70.50;;;;;;5034195;28;20077;-62
2022/07/11 12:38:57;;;;;;;5.07;0.70;;;21.80;70.40;;;;;;5034914;28;20048;-61
2022/07/11 12:41:23;;;;;;;3.72;0.80;;;21.80;70.40;;;;;;5035403;28;20116;-62
2022/07/11 12:46:34;;;;;;;5.38;0.90;;;21.80;70.40;;;;;;5035646;28;20482;-62
2022/07/11 12:49:01;;;;;;;2.92;0.73;;;21.80;70.40;;;;;;5033645;28;20053;-62
2022/07/11 12:51:39;;;;;;;5.10;0.90;;;21.90;70.40;;;;;;5032836;28;20429;-62
2022/07/11 12:54:15;;;;;;;3.72;0.60;;;21.80;70.20;;;;;;5034880;28;20045;-62
2022/07/11 12:56:53;;;;;;;5.25;0.80;;;21.80;70.20;;;;;;5034885;28;20052;-62
2022/07/11 12:59:20;;;;;;;5.50;0.82;;;21.80;70.20;;;;;;5033127;28;20147;-62